Susuman, Russia
Current Conditions -  °F | °C
As of 11:00 AM on Saturday 22 Nov 2014 (Local Time) from UHMM Reporting Station
Few Clouds Few Clouds  
Wind Chill: -9°   Ceiling: Unl
Heat Index: -9°   Visibility: 6mi
Dew Point: -15°   Wind: 2mph
Humidity: 77%   Direction: 90°E
Pressure: 30"   Gusts: NA
Location:  62.78°N, 148.17°E
Report Text: UHMM 220000Z 09001MPS 9999 FEW100 M23/M26 Q1016 NOSIG RMKQFE747 88950550
Loading
Personal Weather Stations






























Interactive Weather Map New forecast layout! Learn more

10-Day Weather Forecast

Advertisements
Track Severe Weather on mobile